Flom, Minnesota
Current Conditions -  °F | °C
As of 4:35 AM on Friday 24 Oct 2014 (Local Time) from K3N8 Reporting Station
Clear Clear  
Wind Chill: 51°   Ceiling: Unl
Heat Index: 51°   Visibility: 10mi
Dew Point: 43°   Wind: 10mph
Humidity: 75%   Direction: 190°S
Pressure: 29.8"   Gusts: NA
Location:  47.17°N, 96.13°W
Report Text: K3N8 240935Z AUTO 19009KT 10SM CLR 11/06 A2980 RMK AO2 T01050063
Loading
Personal Weather Stations






























Interactive Weather Map
Tropical Storm Tracking
New forecast layout! Learn more

10-Day Weather Forecast

Advertisements
Track Severe Weather on mobile